aviador You're here:

YABA Decoded Metar

in
Report Time2017-04-29 17:00:00
UTC Time2017-04-29 17:45:52
Flight Rules mvfr MVFR
Wind290° at 06 kt
W.Decomp.*RWY 32: 5.2 kt HW 3 kt LCW
RWY 23: 3.0 kt HW 5.2 kt RCW
W.Rank290° ranks 3
Current wind is below 290° avg. (8.9)
Visibility9999 m
Phenomena:N/A
Clouds:Broken 016 Hf
Expected CloudBase > 400 ft AGL from Temp-Dew spread
Ceiling1,600 ft
Temp14°C
Dew Point13°C (94% RH)
AAT12.8°C
QNH1020 hPa
Raw Report
METAR YABA 291700Z AUTO 29006KT 9999 // BKN016 14/13 Q1020=

Extra information for YABA:More info

Social comments